Aviation Digital Data Service (ADDS)

Output produced by METARs form (0025 UTC 27 April 2018)
found at http://aviationweather.gov/adds/metars/
 
METAR text: KBLU 262352Z AUTO 23006KT 10SM CLR 18/06 A3006 RMK AO2 LTG DSNT NE SLP109 T01830056 10200 20178 58014
Conditions at: KBLU (EMIGRANT GAP , CA, US) observed 2352 UTC 26 April 2018
Temperature: 18.3°C (65°F)
Dewpoint: 5.6°C (42°F) [RH = 43%]
Pressure (altimeter): 30.06 inches Hg (1018.0 mb)
[Sea-level pressure: 1010.9 mb]
Winds: from the SW (230 degrees) at 7 MPH (6 knots; 3.1 m/s)
Visibility: 10 or more miles (16+ km)
Ceiling: at least 12,000 feet AGL
Clouds: sky clear below 12,000 feet AGL
Weather: automated observation with no human augmentation;
there may or may not be significant weather present at this time